sensor_id;sensor_type;location;lat;lon;timestamp;temperature;humidity
7576;DHT22;3829;50.798;4.358;2023-12-20T00:00:55;6.40;99.90
7576;DHT22;3829;50.798;4.358;2023-12-20T00:03:21;6.30;99.90
7576;DHT22;3829;50.798;4.358;2023-12-20T00:05:47;6.30;99.90
7576;DHT22;3829;50.798;4.358;2023-12-20T00:08:13;6.20;99.90
7576;DHT22;3829;50.798;4.358;2023-12-20T00:10:38;6.30;99.90
7576;DHT22;3829;50.798;4.358;2023-12-20T00:13:04;6.50;99.90
7576;DHT22;3829;50.798;4.358;2023-12-20T00:15:29;6.60;99.90
7576;DHT22;3829;50.798;4.358;2023-12-20T00:17:55;6.70;99.90
7576;DHT22;3829;50.798;4.358;2023-12-20T00:20:21;6.60;99.90
7576;DHT22;3829;50.798;4.358;2023-12-20T00:22:46;6.50;99.90
7576;DHT22;3829;50.798;4.358;2023-12-20T00:25:12;6.60;99.90
7576;DHT22;3829;50.798;4.358;2023-12-20T00:27:37;6.50;99.90
7576;DHT22;3829;50.798;4.358;2023-12-20T00:30:03;6.50;99.90
7576;DHT22;3829;50.798;4.358;2023-12-20T00:32:29;6.40;99.90
7576;DHT22;3829;50.798;4.358;2023-12-20T00:34:54;6.30;99.90
7576;DHT22;3829;50.798;4.358;2023-12-20T00:37:20;6.30;99.90
7576;DHT22;3829;50.798;4.358;2023-12-20T00:39:46;6.20;99.90
7576;DHT22;3829;50.798;4.358;2023-12-20T00:42:11;6.20;99.90
7576;DHT22;3829;50.798;4.358;2023-12-20T00:44:37;6.20;99.90
7576;DHT22;3829;50.798;4.358;2023-12-20T00:47:03;6.20;99.90
7576;DHT22;3829;50.798;4.358;2023-12-20T00:49:28;6.10;99.90
7576;DHT22;3829;50.798;4.358;2023-12-20T00:51:54;6.10;99.90
7576;DHT22;3829;50.798;4.358;2023-12-20T00:54:19;6.00;99.90
7576;DHT22;3829;50.798;4.358;2023-12-20T00:56:45;6.10;99.90
7576;DHT22;3829;50.798;4.358;2023-12-20T00:59:10;6.00;99.90
7576;DHT22;3829;50.798;4.358;2023-12-20T01:01:36;6.00;99.90
7576;DHT22;3829;50.798;4.358;2023-12-20T01:04:01;6.00;99.90
7576;DHT22;3829;50.798;4.358;2023-12-20T01:06:27;6.00;99.90
7576;DHT22;3829;50.798;4.358;2023-12-20T01:08:53;5.80;99.90
7576;DHT22;3829;50.798;4.358;2023-12-20T01:11:18;5.90;99.90
7576;DHT22;3829;50.798;4.358;2023-12-20T01:13:44;5.80;99.90
7576;DHT22;3829;50.798;4.358;2023-12-20T01:16:11;5.80;99.90
7576;DHT22;3829;50.798;4.358;2023-12-20T01:18:37;5.80;99.90
7576;DHT22;3829;50.798;4.358;2023-12-20T01:21:04;5.80;99.90
7576;DHT22;3829;50.798;4.358;2023-12-20T01:23:30;5.80;99.90
7576;DHT22;3829;50.798;4.358;2023-12-20T01:25:56;5.80;99.90
7576;DHT22;3829;50.798;4.358;2023-12-20T01:28:21;5.80;99.90
7576;DHT22;3829;50.798;4.358;2023-12-20T01:30:47;5.80;99.90
7576;DHT22;3829;50.798;4.358;2023-12-20T01:33:13;5.90;99.90
7576;DHT22;3829;50.798;4.358;2023-12-20T01:35:38;5.90;99.90
7576;DHT22;3829;50.798;4.358;2023-12-20T01:38:04;5.90;99.90
7576;DHT22;3829;50.798;4.358;2023-12-20T01:40:29;5.90;99.90
7576;DHT22;3829;50.798;4.358;2023-12-20T01:43:07;5.80;99.90
7576;DHT22;3829;50.798;4.358;2023-12-20T01:45:34;5.80;99.90
7576;DHT22;3829;50.798;4.358;2023-12-20T01:48:00;5.80;99.90
7576;DHT22;3829;50.798;4.358;2023-12-20T01:50:27;5.70;99.90
7576;DHT22;3829;50.798;4.358;2023-12-20T01:52:54;5.70;99.90
7576;DHT22;3829;50.798;4.358;2023-12-20T01:55:23;5.70;99.90
7576;DHT22;3829;50.798;4.358;2023-12-20T01:57:50;5.70;99.90
7576;DHT22;3829;50.798;4.358;2023-12-20T02:00:17;5.70;99.90
7576;DHT22;3829;50.798;4.358;2023-12-20T02:02:44;5.60;99.90
7576;DHT22;3829;50.798;4.358;2023-12-20T02:05:11;5.80;99.90
7576;DHT22;3829;50.798;4.358;2023-12-20T02:07:37;5.70;99.90
7576;DHT22;3829;50.798;4.358;2023-12-20T02:10:02;6.00;99.90
7576;DHT22;3829;50.798;4.358;2023-12-20T02:12:29;6.00;99.90
7576;DHT22;3829;50.798;4.358;2023-12-20T02:14:55;6.00;99.90
7576;DHT22;3829;50.798;4.358;2023-12-20T02:17:22;5.80;99.90
7576;DHT22;3829;50.798;4.358;2023-12-20T02:19:47;5.80;99.90
7576;DHT22;3829;50.798;4.358;2023-12-20T02:22:13;5.80;99.90
7576;DHT22;3829;50.798;4.358;2023-12-20T02:24:39;5.80;99.90
7576;DHT22;3829;50.798;4.358;2023-12-20T02:27:06;5.70;99.90
7576;DHT22;3829;50.798;4.358;2023-12-20T02:29:33;5.70;99.90
7576;DHT22;3829;50.798;4.358;2023-12-20T02:31:58;5.70;99.90
7576;DHT22;3829;50.798;4.358;2023-12-20T02:34:24;5.70;99.90
7576;DHT22;3829;50.798;4.358;2023-12-20T02:36:49;5.70;99.90
7576;DHT22;3829;50.798;4.358;2023-12-20T02:39:15;5.70;99.90
7576;DHT22;3829;50.798;4.358;2023-12-20T02:41:41;5.50;99.90
7576;DHT22;3829;50.798;4.358;2023-12-20T02:44:06;5.70;99.90
7576;DHT22;3829;50.798;4.358;2023-12-20T02:46:32;5.70;99.90
7576;DHT22;3829;50.798;4.358;2023-12-20T02:48:57;5.60;99.90
7576;DHT22;3829;50.798;4.358;2023-12-20T02:51:23;5.60;99.90
7576;DHT22;3829;50.798;4.358;2023-12-20T02:53:48;5.60;99.90
7576;DHT22;3829;50.798;4.358;2023-12-20T02:56:14;5.80;99.90
7576;DHT22;3829;50.798;4.358;2023-12-20T02:58:40;5.90;99.90
7576;DHT22;3829;50.798;4.358;2023-12-20T03:01:05;5.90;99.90
7576;DHT22;3829;50.798;4.358;2023-12-20T03:03:31;5.90;99.90
7576;DHT22;3829;50.798;4.358;2023-12-20T03:05:58;6.00;99.90
7576;DHT22;3829;50.798;4.358;2023-12-20T03:08:24;6.00;99.90
7576;DHT22;3829;50.798;4.358;2023-12-20T03:10:50;6.10;99.90
7576;DHT22;3829;50.798;4.358;2023-12-20T03:13:15;6.10;99.90
7576;DHT22;3829;50.798;4.358;2023-12-20T03:15:41;6.20;99.90
7576;DHT22;3829;50.798;4.358;2023-12-20T03:18:06;6.30;99.90
7576;DHT22;3829;50.798;4.358;2023-12-20T03:20:32;6.30;99.90
7576;DHT22;3829;50.798;4.358;2023-12-20T03:23:00;6.30;99.90
7576;DHT22;3829;50.798;4.358;2023-12-20T03:25:25;6.30;99.90
7576;DHT22;3829;50.798;4.358;2023-12-20T03:27:51;6.20;99.90
7576;DHT22;3829;50.798;4.358;2023-12-20T03:30:17;6.20;99.90
7576;DHT22;3829;50.798;4.358;2023-12-20T03:32:43;6.30;99.90
7576;DHT22;3829;50.798;4.358;2023-12-20T03:35:09;6.30;99.90
7576;DHT22;3829;50.798;4.358;2023-12-20T03:37:34;6.20;99.90
7576;DHT22;3829;50.798;4.358;2023-12-20T03:40:00;6.10;99.90
7576;DHT22;3829;50.798;4.358;2023-12-20T03:42:26;6.10;99.90
7576;DHT22;3829;50.798;4.358;2023-12-20T03:44:51;6.10;99.90
7576;DHT22;3829;50.798;4.358;2023-12-20T03:47:17;6.00;99.90
7576;DHT22;3829;50.798;4.358;2023-12-20T03:49:42;6.10;99.90
7576;DHT22;3829;50.798;4.358;2023-12-20T03:52:08;6.10;99.90
7576;DHT22;3829;50.798;4.358;2023-12-20T03:54:35;6.00;99.90
7576;DHT22;3829;50.798;4.358;2023-12-20T03:57:00;6.10;99.90
7576;DHT22;3829;50.798;4.358;2023-12-20T03:59:26;6.00;99.90
7576;DHT22;3829;50.798;4.358;2023-12-20T04:01:51;5.90;99.90
7576;DHT22;3829;50.798;4.358;2023-12-20T04:04:17;6.00;99.90
7576;DHT22;3829;50.798;4.358;2023-12-20T04:06:43;6.10;99.90
7576;DHT22;3829;50.798;4.358;2023-12-20T04:09:09;6.30;99.90
7576;DHT22;3829;50.798;4.358;2023-12-20T04:11:35;6.10;99.90
7576;DHT22;3829;50.798;4.358;2023-12-20T04:14:00;6.10;99.90
7576;DHT22;3829;50.798;4.358;2023-12-20T04:16:26;6.10;99.90
7576;DHT22;3829;50.798;4.358;2023-12-20T04:18:52;6.10;99.90
7576;DHT22;3829;50.798;4.358;2023-12-20T04:21:17;6.10;99.90
7576;DHT22;3829;50.798;4.358;2023-12-20T04:23:43;6.10;99.90
7576;DHT22;3829;50.798;4.358;2023-12-20T04:26:09;6.10;99.90
7576;DHT22;3829;50.798;4.358;2023-12-20T04:28:35;6.00;99.90
7576;DHT22;3829;50.798;4.358;2023-12-20T04:31:00;6.00;99.90
7576;DHT22;3829;50.798;4.358;2023-12-20T04:33:26;5.90;99.90
7576;DHT22;3829;50.798;4.358;2023-12-20T04:35:51;5.80;99.90
7576;DHT22;3829;50.798;4.358;2023-12-20T04:38:17;5.80;99.90
7576;DHT22;3829;50.798;4.358;2023-12-20T04:40:42;5.80;99.90
7576;DHT22;3829;50.798;4.358;2023-12-20T04:43:08;5.90;99.90
7576;DHT22;3829;50.798;4.358;2023-12-20T04:45:35;5.90;99.90
7576;DHT22;3829;50.798;4.358;2023-12-20T04:48:01;5.90;99.90
7576;DHT22;3829;50.798;4.358;2023-12-20T04:50:27;5.90;99.90
7576;DHT22;3829;50.798;4.358;2023-12-20T04:52:52;5.90;99.90
7576;DHT22;3829;50.798;4.358;2023-12-20T04:55:18;6.00;99.90
7576;DHT22;3829;50.798;4.358;2023-12-20T04:57:43;6.00;99.90
7576;DHT22;3829;50.798;4.358;2023-12-20T05:00:09;6.00;99.90
7576;DHT22;3829;50.798;4.358;2023-12-20T05:02:36;6.20;99.90
7576;DHT22;3829;50.798;4.358;2023-12-20T05:05:02;6.20;99.90
7576;DHT22;3829;50.798;4.358;2023-12-20T05:07:27;6.20;99.90
7576;DHT22;3829;50.798;4.358;2023-12-20T05:09:53;6.20;99.90
7576;DHT22;3829;50.798;4.358;2023-12-20T05:12:19;6.30;99.90
7576;DHT22;3829;50.798;4.358;2023-12-20T05:14:45;6.30;99.90
7576;DHT22;3829;50.798;4.358;2023-12-20T05:17:11;6.20;99.90
7576;DHT22;3829;50.798;4.358;2023-12-20T05:19:37;6.10;99.90
7576;DHT22;3829;50.798;4.358;2023-12-20T05:22:02;6.20;99.90
7576;DHT22;3829;50.798;4.358;2023-12-20T05:24:28;6.30;99.90
7576;DHT22;3829;50.798;4.358;2023-12-20T05:26:54;6.30;99.90
7576;DHT22;3829;50.798;4.358;2023-12-20T05:29:19;6.20;99.90
7576;DHT22;3829;50.798;4.358;2023-12-20T05:31:45;6.10;99.90
7576;DHT22;3829;50.798;4.358;2023-12-20T05:34:11;6.00;99.90
7576;DHT22;3829;50.798;4.358;2023-12-20T05:36:37;6.00;99.90
7576;DHT22;3829;50.798;4.358;2023-12-20T05:39:03;5.80;99.90
7576;DHT22;3829;50.798;4.358;2023-12-20T05:41:30;5.80;99.90
7576;DHT22;3829;50.798;4.358;2023-12-20T05:43:56;5.80;99.90
7576;DHT22;3829;50.798;4.358;2023-12-20T05:46:23;5.80;99.90
7576;DHT22;3829;50.798;4.358;2023-12-20T05:48:49;5.60;99.90
7576;DHT22;3829;50.798;4.358;2023-12-20T05:51:14;5.60;99.90
7576;DHT22;3829;50.798;4.358;2023-12-20T05:53:40;5.60;99.90
7576;DHT22;3829;50.798;4.358;2023-12-20T05:56:06;5.50;99.90
7576;DHT22;3829;50.798;4.358;2023-12-20T05:58:32;5.50;99.90
7576;DHT22;3829;50.798;4.358;2023-12-20T06:00:58;5.50;99.90
7576;DHT22;3829;50.798;4.358;2023-12-20T06:03:23;5.60;99.90
7576;DHT22;3829;50.798;4.358;2023-12-20T06:05:49;5.70;99.90
7576;DHT22;3829;50.798;4.358;2023-12-20T06:08:14;5.70;99.90
7576;DHT22;3829;50.798;4.358;2023-12-20T06:10:40;5.70;99.90
7576;DHT22;3829;50.798;4.358;2023-12-20T06:13:06;5.60;99.90
7576;DHT22;3829;50.798;4.358;2023-12-20T06:15:32;5.60;99.90
7576;DHT22;3829;50.798;4.358;2023-12-20T06:17:58;5.60;99.90
7576;DHT22;3829;50.798;4.358;2023-12-20T06:20:23;5.80;99.90
7576;DHT22;3829;50.798;4.358;2023-12-20T06:22:49;5.70;99.90
7576;DHT22;3829;50.798;4.358;2023-12-20T06:25:15;5.80;99.90
7576;DHT22;3829;50.798;4.358;2023-12-20T06:27:40;5.80;99.90
7576;DHT22;3829;50.798;4.358;2023-12-20T06:30:07;5.70;99.90
7576;DHT22;3829;50.798;4.358;2023-12-20T06:32:34;5.70;99.90
7576;DHT22;3829;50.798;4.358;2023-12-20T06:35:00;5.90;99.90
7576;DHT22;3829;50.798;4.358;2023-12-20T06:37:25;5.90;99.90
7576;DHT22;3829;50.798;4.358;2023-12-20T06:39:51;6.00;99.90
7576;DHT22;3829;50.798;4.358;2023-12-20T06:42:16;6.00;99.90
7576;DHT22;3829;50.798;4.358;2023-12-20T06:44:42;5.90;99.90
7576;DHT22;3829;50.798;4.358;2023-12-20T06:47:08;5.90;99.90
7576;DHT22;3829;50.798;4.358;2023-12-20T06:49:33;5.90;99.90
7576;DHT22;3829;50.798;4.358;2023-12-20T06:51:59;5.70;99.90
7576;DHT22;3829;50.798;4.358;2023-12-20T06:54:25;5.70;99.90
7576;DHT22;3829;50.798;4.358;2023-12-20T06:56:50;5.60;99.90
7576;DHT22;3829;50.798;4.358;2023-12-20T06:59:16;5.50;99.90
7576;DHT22;3829;50.798;4.358;2023-12-20T07:01:42;5.30;99.90
7576;DHT22;3829;50.798;4.358;2023-12-20T07:04:08;5.40;99.90
7576;DHT22;3829;50.798;4.358;2023-12-20T07:06:33;5.30;99.90
7576;DHT22;3829;50.798;4.358;2023-12-20T07:08:59;5.30;99.90
7576;DHT22;3829;50.798;4.358;2023-12-20T07:11:25;5.30;99.90
7576;DHT22;3829;50.798;4.358;2023-12-20T07:13:51;5.20;99.90
7576;DHT22;3829;50.798;4.358;2023-12-20T07:16:17;5.30;99.90
7576;DHT22;3829;50.798;4.358;2023-12-20T07:18:42;5.20;99.90
7576;DHT22;3829;50.798;4.358;2023-12-20T07:21:08;5.20;99.90
7576;DHT22;3829;50.798;4.358;2023-12-20T07:23:34;5.20;99.90
7576;DHT22;3829;50.798;4.358;2023-12-20T07:25:59;5.20;99.90
7576;DHT22;3829;50.798;4.358;2023-12-20T07:28:25;5.10;99.90
7576;DHT22;3829;50.798;4.358;2023-12-20T07:30:50;5.20;99.90
7576;DHT22;3829;50.798;4.358;2023-12-20T07:33:16;5.10;99.90
7576;DHT22;3829;50.798;4.358;2023-12-20T07:35:41;5.20;99.90
7576;DHT22;3829;50.798;4.358;2023-12-20T07:38:07;5.10;99.90
7576;DHT22;3829;50.798;4.358;2023-12-20T07:40:33;5.10;99.90
7576;DHT22;3829;50.798;4.358;2023-12-20T07:42:58;5.10;99.90
7576;DHT22;3829;50.798;4.358;2023-12-20T07:45:24;5.10;99.90
7576;DHT22;3829;50.798;4.358;2023-12-20T07:47:49;5.20;99.90
7576;DHT22;3829;50.798;4.358;2023-12-20T07:50:15;5.10;99.90
7576;DHT22;3829;50.798;4.358;2023-12-20T07:52:41;5.10;99.90
7576;DHT22;3829;50.798;4.358;2023-12-20T07:55:07;5.10;99.90
7576;DHT22;3829;50.798;4.358;2023-12-20T07:57:32;5.10;99.90
7576;DHT22;3829;50.798;4.358;2023-12-20T07:59:58;5.10;99.90
7576;DHT22;3829;50.798;4.358;2023-12-20T08:02:23;5.10;99.90
7576;DHT22;3829;50.798;4.358;2023-12-20T08:04:49;5.20;99.90
7576;DHT22;3829;50.798;4.358;2023-12-20T08:07:15;5.20;99.90
7576;DHT22;3829;50.798;4.358;2023-12-20T08:09:40;5.20;99.90
7576;DHT22;3829;50.798;4.358;2023-12-20T08:12:06;5.20;99.90
7576;DHT22;3829;50.798;4.358;2023-12-20T08:14:32;5.30;99.90
7576;DHT22;3829;50.798;4.358;2023-12-20T08:16:57;5.20;99.90
7576;DHT22;3829;50.798;4.358;2023-12-20T08:19:23;5.30;99.90
7576;DHT22;3829;50.798;4.358;2023-12-20T08:21:49;5.30;99.90
7576;DHT22;3829;50.798;4.358;2023-12-20T08:24:14;5.40;99.90
7576;DHT22;3829;50.798;4.358;2023-12-20T08:26:40;5.40;99.90
7576;DHT22;3829;50.798;4.358;2023-12-20T08:29:05;5.40;99.90
7576;DHT22;3829;50.798;4.358;2023-12-20T08:31:31;5.30;99.90
7576;DHT22;3829;50.798;4.358;2023-12-20T08:33:56;5.40;99.90
7576;DHT22;3829;50.798;4.358;2023-12-20T08:36:22;5.50;99.90
7576;DHT22;3829;50.798;4.358;2023-12-20T08:38:48;5.60;99.90
7576;DHT22;3829;50.798;4.358;2023-12-20T08:41:15;5.60;99.90
7576;DHT22;3829;50.798;4.358;2023-12-20T08:43:41;5.60;99.90
7576;DHT22;3829;50.798;4.358;2023-12-20T08:46:07;5.70;99.90
7576;DHT22;3829;50.798;4.358;2023-12-20T08:48:35;5.80;99.90
7576;DHT22;3829;50.798;4.358;2023-12-20T08:51:00;5.80;99.90
7576;DHT22;3829;50.798;4.358;2023-12-20T08:53:26;5.80;99.90
7576;DHT22;3829;50.798;4.358;2023-12-20T08:55:52;5.70;99.90
7576;DHT22;3829;50.798;4.358;2023-12-20T08:58:17;5.70;99.90
7576;DHT22;3829;50.798;4.358;2023-12-20T09:00:43;5.80;99.90
7576;DHT22;3829;50.798;4.358;2023-12-20T09:03:09;5.80;99.90
7576;DHT22;3829;50.798;4.358;2023-12-20T09:05:40;5.90;99.90
7576;DHT22;3829;50.798;4.358;2023-12-20T09:08:06;5.90;99.90
7576;DHT22;3829;50.798;4.358;2023-12-20T09:10:33;6.00;99.90
7576;DHT22;3829;50.798;4.358;2023-12-20T09:12:58;6.00;99.90
7576;DHT22;3829;50.798;4.358;2023-12-20T09:15:25;6.10;99.90
7576;DHT22;3829;50.798;4.358;2023-12-20T09:17:51;6.20;99.90
7576;DHT22;3829;50.798;4.358;2023-12-20T09:20:17;6.30;99.90
7576;DHT22;3829;50.798;4.358;2023-12-20T09:22:43;6.30;99.90
7576;DHT22;3829;50.798;4.358;2023-12-20T09:25:10;6.30;99.90
7576;DHT22;3829;50.798;4.358;2023-12-20T09:27:36;6.50;99.90
7576;DHT22;3829;50.798;4.358;2023-12-20T09:30:02;6.60;99.90
7576;DHT22;3829;50.798;4.358;2023-12-20T09:32:29;6.60;99.90
7576;DHT22;3829;50.798;4.358;2023-12-20T09:34:55;6.80;99.90
7576;DHT22;3829;50.798;4.358;2023-12-20T09:37:20;6.80;99.90
7576;DHT22;3829;50.798;4.358;2023-12-20T09:39:46;6.80;99.90
7576;DHT22;3829;50.798;4.358;2023-12-20T09:42:12;6.90;99.90
7576;DHT22;3829;50.798;4.358;2023-12-20T09:44:41;7.00;99.90
7576;DHT22;3829;50.798;4.358;2023-12-20T09:47:10;7.20;99.90
7576;DHT22;3829;50.798;4.358;2023-12-20T09:49:36;7.30;99.90
7576;DHT22;3829;50.798;4.358;2023-12-20T09:52:03;7.30;99.90
7576;DHT22;3829;50.798;4.358;2023-12-20T09:54:30;7.30;99.90
7576;DHT22;3829;50.798;4.358;2023-12-20T09:56:56;7.40;99.90
7576;DHT22;3829;50.798;4.358;2023-12-20T09:59:21;7.40;99.90
7576;DHT22;3829;50.798;4.358;2023-12-20T10:01:48;7.20;99.90
7576;DHT22;3829;50.798;4.358;2023-12-20T10:04:15;7.40;99.90
7576;DHT22;3829;50.798;4.358;2023-12-20T10:06:42;7.60;99.90
7576;DHT22;3829;50.798;4.358;2023-12-20T10:09:09;7.60;99.90
7576;DHT22;3829;50.798;4.358;2023-12-20T10:11:37;7.70;99.90
7576;DHT22;3829;50.798;4.358;2023-12-20T10:14:03;7.70;99.90
7576;DHT22;3829;50.798;4.358;2023-12-20T10:16:30;7.40;99.90
7576;DHT22;3829;50.798;4.358;2023-12-20T10:18:56;7.30;99.90
7576;DHT22;3829;50.798;4.358;2023-12-20T10:21:23;7.30;99.90
7576;DHT22;3829;50.798;4.358;2023-12-20T10:23:52;7.30;99.90
7576;DHT22;3829;50.798;4.358;2023-12-20T10:26:25;7.30;99.90
7576;DHT22;3829;50.798;4.358;2023-12-20T10:28:56;7.30;99.90
7576;DHT22;3829;50.798;4.358;2023-12-20T10:31:28;7.50;99.90
7576;DHT22;3829;50.798;4.358;2023-12-20T10:33:55;7.60;99.90
7576;DHT22;3829;50.798;4.358;2023-12-20T10:36:21;7.70;99.90
7576;DHT22;3829;50.798;4.358;2023-12-20T10:38:50;7.70;99.90
7576;DHT22;3829;50.798;4.358;2023-12-20T10:41:24;7.80;99.90
7576;DHT22;3829;50.798;4.358;2023-12-20T10:43:51;8.10;99.90
7576;DHT22;3829;50.798;4.358;2023-12-20T10:46:19;8.20;99.90
7576;DHT22;3829;50.798;4.358;2023-12-20T10:48:46;8.00;99.90
7576;DHT22;3829;50.798;4.358;2023-12-20T10:51:14;7.90;99.90
7576;DHT22;3829;50.798;4.358;2023-12-20T10:53:43;8.20;99.90
7576;DHT22;3829;50.798;4.358;2023-12-20T10:56:15;8.20;99.90
7576;DHT22;3829;50.798;4.358;2023-12-20T10:58:42;8.30;99.90
7576;DHT22;3829;50.798;4.358;2023-12-20T11:01:10;8.30;99.90
7576;DHT22;3829;50.798;4.358;2023-12-20T11:03:37;8.30;99.90
7576;DHT22;3829;50.798;4.358;2023-12-20T11:06:10;8.20;99.90
7576;DHT22;3829;50.798;4.358;2023-12-20T11:08:51;8.20;99.90
7576;DHT22;3829;50.798;4.358;2023-12-20T11:11:35;8.30;99.90
7576;DHT22;3829;50.798;4.358;2023-12-20T11:14:07;8.30;99.90
7576;DHT22;3829;50.798;4.358;2023-12-20T11:16:38;8.20;99.90
7576;DHT22;3829;50.798;4.358;2023-12-20T11:19:05;8.20;99.90
7576;DHT22;3829;50.798;4.358;2023-12-20T11:21:31;8.20;99.90
7576;DHT22;3829;50.798;4.358;2023-12-20T11:23:56;8.20;99.90
7576;DHT22;3829;50.798;4.358;2023-12-20T11:26:27;8.30;99.90
7576;DHT22;3829;50.798;4.358;2023-12-20T11:28:54;8.20;99.90
7576;DHT22;3829;50.798;4.358;2023-12-20T11:31:20;8.30;99.90
7576;DHT22;3829;50.798;4.358;2023-12-20T11:33:46;8.20;99.90
7576;DHT22;3829;50.798;4.358;2023-12-20T11:36:15;8.10;99.90
7576;DHT22;3829;50.798;4.358;2023-12-20T11:38:53;8.20;99.90
7576;DHT22;3829;50.798;4.358;2023-12-20T11:41:22;8.10;99.90
7576;DHT22;3829;50.798;4.358;2023-12-20T11:43:49;8.10;99.90
7576;DHT22;3829;50.798;4.358;2023-12-20T11:46:18;8.00;99.90
7576;DHT22;3829;50.798;4.358;2023-12-20T11:48:44;8.00;99.90
7576;DHT22;3829;50.798;4.358;2023-12-20T11:51:12;8.00;99.90
7576;DHT22;3829;50.798;4.358;2023-12-20T11:53:38;8.10;99.90
7576;DHT22;3829;50.798;4.358;2023-12-20T11:56:06;8.10;99.90
7576;DHT22;3829;50.798;4.358;2023-12-20T11:58:32;8.10;99.90
7576;DHT22;3829;50.798;4.358;2023-12-20T12:00:58;8.20;99.90
7576;DHT22;3829;50.798;4.358;2023-12-20T12:03:24;8.20;99.90
7576;DHT22;3829;50.798;4.358;2023-12-20T12:05:52;8.20;99.90
7576;DHT22;3829;50.798;4.358;2023-12-20T12:08:18;8.20;99.90
7576;DHT22;3829;50.798;4.358;2023-12-20T12:10:45;8.30;99.90
7576;DHT22;3829;50.798;4.358;2023-12-20T12:13:14;8.20;99.90
7576;DHT22;3829;50.798;4.358;2023-12-20T12:15:40;8.20;99.90
7576;DHT22;3829;50.798;4.358;2023-12-20T12:18:07;8.30;99.90
7576;DHT22;3829;50.798;4.358;2023-12-20T12:20:33;8.50;99.90
7576;DHT22;3829;50.798;4.358;2023-12-20T12:23:03;8.40;99.90
7576;DHT22;3829;50.798;4.358;2023-12-20T12:25:32;8.50;99.90
7576;DHT22;3829;50.798;4.358;2023-12-20T12:27:58;8.60;99.90
7576;DHT22;3829;50.798;4.358;2023-12-20T12:30:24;8.60;99.90
7576;DHT22;3829;50.798;4.358;2023-12-20T12:32:51;8.60;99.90
7576;DHT22;3829;50.798;4.358;2023-12-20T12:35:17;8.50;99.90
7576;DHT22;3829;50.798;4.358;2023-12-20T12:37:43;8.50;99.90
7576;DHT22;3829;50.798;4.358;2023-12-20T12:40:12;8.40;99.90
7576;DHT22;3829;50.798;4.358;2023-12-20T12:42:40;8.50;99.90
7576;DHT22;3829;50.798;4.358;2023-12-20T12:45:06;8.50;99.90
7576;DHT22;3829;50.798;4.358;2023-12-20T12:47:32;8.50;99.90
7576;DHT22;3829;50.798;4.358;2023-12-20T12:49:59;8.50;99.90
7576;DHT22;3829;50.798;4.358;2023-12-20T12:52:24;8.50;99.90
7576;DHT22;3829;50.798;4.358;2023-12-20T12:54:50;8.50;99.90
7576;DHT22;3829;50.798;4.358;2023-12-20T12:57:15;8.50;99.90
7576;DHT22;3829;50.798;4.358;2023-12-20T12:59:42;8.40;99.90
7576;DHT22;3829;50.798;4.358;2023-12-20T13:02:09;8.40;99.90
7576;DHT22;3829;50.798;4.358;2023-12-20T13:04:35;8.50;99.90
7576;DHT22;3829;50.798;4.358;2023-12-20T13:07:01;8.50;99.90
7576;DHT22;3829;50.798;4.358;2023-12-20T13:09:29;8.40;99.90
7576;DHT22;3829;50.798;4.358;2023-12-20T13:11:55;8.40;99.90
7576;DHT22;3829;50.798;4.358;2023-12-20T13:14:21;8.40;99.90
7576;DHT22;3829;50.798;4.358;2023-12-20T13:16:47;8.40;99.90
7576;DHT22;3829;50.798;4.358;2023-12-20T13:19:13;8.30;99.90
7576;DHT22;3829;50.798;4.358;2023-12-20T13:21:39;8.50;99.90
7576;DHT22;3829;50.798;4.358;2023-12-20T13:24:05;8.60;99.90
7576;DHT22;3829;50.798;4.358;2023-12-20T13:26:32;8.60;99.90
7576;DHT22;3829;50.798;4.358;2023-12-20T13:28:58;8.70;99.90
7576;DHT22;3829;50.798;4.358;2023-12-20T13:31:24;8.70;99.90
7576;DHT22;3829;50.798;4.358;2023-12-20T13:33:49;8.80;99.90
7576;DHT22;3829;50.798;4.358;2023-12-20T13:36:18;8.80;99.90
7576;DHT22;3829;50.798;4.358;2023-12-20T13:38:43;8.80;99.90
7576;DHT22;3829;50.798;4.358;2023-12-20T13:41:09;8.90;99.90
7576;DHT22;3829;50.798;4.358;2023-12-20T13:43:35;9.10;99.90
7576;DHT22;3829;50.798;4.358;2023-12-20T13:46:00;9.10;99.90
7576;DHT22;3829;50.798;4.358;2023-12-20T13:48:26;9.10;99.90
7576;DHT22;3829;50.798;4.358;2023-12-20T13:50:52;9.10;99.90
7576;DHT22;3829;50.798;4.358;2023-12-20T13:53:18;9.10;99.90
7576;DHT22;3829;50.798;4.358;2023-12-20T13:55:44;9.20;99.90
7576;DHT22;3829;50.798;4.358;2023-12-20T13:58:10;9.10;99.90
7576;DHT22;3829;50.798;4.358;2023-12-20T14:00:36;9.10;99.90
7576;DHT22;3829;50.798;4.358;2023-12-20T14:03:03;9.20;99.90
7576;DHT22;3829;50.798;4.358;2023-12-20T14:05:29;9.20;99.90
7576;DHT22;3829;50.798;4.358;2023-12-20T14:07:55;9.20;99.90
7576;DHT22;3829;50.798;4.358;2023-12-20T14:10:23;9.20;99.90
7576;DHT22;3829;50.798;4.358;2023-12-20T14:12:52;9.30;99.90
7576;DHT22;3829;50.798;4.358;2023-12-20T14:15:18;9.30;99.90
7576;DHT22;3829;50.798;4.358;2023-12-20T14:17:43;9.30;99.90
7576;DHT22;3829;50.798;4.358;2023-12-20T14:20:09;9.30;99.90
7576;DHT22;3829;50.798;4.358;2023-12-20T14:22:35;9.20;99.90
7576;DHT22;3829;50.798;4.358;2023-12-20T14:25:02;9.30;99.90
7576;DHT22;3829;50.798;4.358;2023-12-20T14:27:28;9.30;99.90
7576;DHT22;3829;50.798;4.358;2023-12-20T14:29:54;9.30;99.90
7576;DHT22;3829;50.798;4.358;2023-12-20T14:32:19;9.40;99.90
7576;DHT22;3829;50.798;4.358;2023-12-20T14:34:45;9.40;99.90
7576;DHT22;3829;50.798;4.358;2023-12-20T14:37:11;9.40;99.90
7576;DHT22;3829;50.798;4.358;2023-12-20T14:39:37;9.30;99.90
7576;DHT22;3829;50.798;4.358;2023-12-20T14:42:08;9.50;99.90
7576;DHT22;3829;50.798;4.358;2023-12-20T14:44:40;9.50;99.90
7576;DHT22;3829;50.798;4.358;2023-12-20T14:47:06;9.50;99.90
7576;DHT22;3829;50.798;4.358;2023-12-20T14:49:32;9.60;99.90
7576;DHT22;3829;50.798;4.358;2023-12-20T14:51:58;9.60;99.90
7576;DHT22;3829;50.798;4.358;2023-12-20T14:54:23;9.50;99.90
7576;DHT22;3829;50.798;4.358;2023-12-20T14:56:49;9.50;99.90
7576;DHT22;3829;50.798;4.358;2023-12-20T14:59:14;9.50;99.90
7576;DHT22;3829;50.798;4.358;2023-12-20T15:01:40;9.50;99.90
7576;DHT22;3829;50.798;4.358;2023-12-20T15:04:06;9.50;99.90
7576;DHT22;3829;50.798;4.358;2023-12-20T15:06:33;9.40;99.90
7576;DHT22;3829;50.798;4.358;2023-12-20T15:08:59;9.50;99.90
7576;DHT22;3829;50.798;4.358;2023-12-20T15:11:28;9.50;99.90
7576;DHT22;3829;50.798;4.358;2023-12-20T15:13:54;9.50;99.90
7576;DHT22;3829;50.798;4.358;2023-12-20T15:16:22;9.50;99.90
7576;DHT22;3829;50.798;4.358;2023-12-20T15:18:47;9.50;99.90
7576;DHT22;3829;50.798;4.358;2023-12-20T15:21:14;9.50;99.90
7576;DHT22;3829;50.798;4.358;2023-12-20T15:23:40;9.40;99.90
7576;DHT22;3829;50.798;4.358;2023-12-20T15:26:09;9.40;99.90
7576;DHT22;3829;50.798;4.358;2023-12-20T15:28:34;9.40;99.90
7576;DHT22;3829;50.798;4.358;2023-12-20T15:31:00;9.30;99.90
7576;DHT22;3829;50.798;4.358;2023-12-20T15:33:26;9.50;99.90
7576;DHT22;3829;50.798;4.358;2023-12-20T15:35:51;9.40;99.90
7576;DHT22;3829;50.798;4.358;2023-12-20T15:38:17;9.40;99.90
7576;DHT22;3829;50.798;4.358;2023-12-20T15:40:42;9.40;99.90
7576;DHT22;3829;50.798;4.358;2023-12-20T15:43:08;9.40;99.90
7576;DHT22;3829;50.798;4.358;2023-12-20T15:45:35;9.50;99.90
7576;DHT22;3829;50.798;4.358;2023-12-20T15:48:01;9.40;99.90
7576;DHT22;3829;50.798;4.358;2023-12-20T15:50:26;9.40;99.90
7576;DHT22;3829;50.798;4.358;2023-12-20T15:52:52;9.50;99.90
7576;DHT22;3829;50.798;4.358;2023-12-20T15:55:17;9.50;99.90
7576;DHT22;3829;50.798;4.358;2023-12-20T15:57:43;9.50;99.90
7576;DHT22;3829;50.798;4.358;2023-12-20T16:00:09;9.50;99.90
7576;DHT22;3829;50.798;4.358;2023-12-20T16:02:34;9.50;99.90
7576;DHT22;3829;50.798;4.358;2023-12-20T16:05:00;9.40;99.90
7576;DHT22;3829;50.798;4.358;2023-12-20T16:07:26;9.40;99.90
7576;DHT22;3829;50.798;4.358;2023-12-20T16:09:52;9.40;99.90